• Join FlightAware (Why Join?)
  • Login
  • US Flag 
11:11AM EST


 

Airport Tracker/Info


-or-


 

Live Flight TrackerFlight Track Log ✈ N6ZQ ✈ 30-Dec-2013 ✈ KLCQ - KSPG

Flight Track Log - Related Links

Times and Time Zones

All times are in EST time to prevent confusion due to time zone crossing. See the N6ZQ flight status page for this flight to view local times or setup timezone preferences in your user account.

Time Position Orientation Groundspeed Altitude Reporting Facility
EST Latitude Longitude Course Direction KTS MPH feet Rate Location/Type
09:38AM 30.1450 -82.5539 165° South 207 238 1,500  Level Jacksonville Center
09:39AM 29.9576 -82.5816 165° South  Level Estimated
09:39AM 30.0969 -82.5325 159° South 200 230 2,900  Level Jacksonville Center
09:40AM 30.0489 -82.5086 157° South 194 223 3,800 1,380 Climbing Jacksonville Center
09:41AM 30.0194 -82.4992 164° South 171 197 5,000 1,500 Climbing Jacksonville Center
09:41AM 30.0028 -82.4872 148° Southeast 189 217 5,300 1,020 Climbing Jacksonville Center
09:42AM 29.9589 -82.4658 157° South 189 217 6,600 1,440 Climbing Jacksonville Center
09:43AM 29.9192 -82.4517 163° South 149 171 8,100 1,380 Climbing Jacksonville Center
09:43AM 29.9214 -82.4492 44° Northeast 171 197 8,000 660 Descending Jacksonville Center
09:44AM 29.8711 -82.4278 160° South 186 214 8,800 600 Climbing Jacksonville Center
09:44AM 29.8753 -82.4278 360° North 171 197 8,600 180 Descending Jacksonville Center
09:45AM 29.8208 -82.4139 168° South 183 211 9,000 300 Climbing Jacksonville Center
09:45AM 29.8272 -82.4114 19° North 176 203 8,900  Descending Jacksonville Center
09:46AM 29.7708 -82.3972 168° South 188 216 9,000  Climbing Jacksonville Center
09:46AM 29.7750 -82.3972 360° North 182 209 8,900  Descending Jacksonville Center
09:47AM 29.7186 -82.3831 168° South 186 214 9,000  Climbing Jacksonville Center
09:47AM 29.7247 -82.3831 360° North 187 215 8,900 -120 Descending Jacksonville Center
09:49AM 29.6661 -82.3667 166° South 185 213 8,900  Level Jacksonville Center
09:49AM 29.6267 -82.3550 166° South 187 215 8,900 60 Level Jacksonville Center
09:49AM 29.6181 -82.3550 180° South 185 213 9,000  Climbing Jacksonville Center
09:50AM 29.5764 -82.3408 164° South 182 209 8,900  Descending Jacksonville Center
09:51AM 29.5617 -82.3411 181° South 184 212 9,000 60 Climbing Jacksonville Center
09:52AM 29.5136 -82.3247 163° South 183 211 9,000  Level Jacksonville Center
09:52AM 29.4739 -82.3128 165° South 183 211 9,000  Level Jacksonville Center
09:53AM 29.4239 -82.2964 164° South 181 208 9,000  Level Jacksonville Center
09:55AM 29.3672 -82.2850 170° South 175 201 9,000  Level Jacksonville Center
09:56AM 29.3192 -82.2708 166° South 170 196 9,000 -60 Level Jacksonville Center
09:57AM 29.2733 -82.2544 163° South 173 199 8,900  Descending Jacksonville Center
09:58AM 29.2211 -82.2406 167° South 177 204 9,000  Climbing Jacksonville Center
09:59AM 29.1731 -82.2314 171° South 176 203 8,900  Descending Jacksonville Center
10:00AM 29.1333 -82.2556 208° Southwest 158 182 9,000 -180 Climbing Jacksonville Center
10:01AM 29.0958 -82.2772 207° Southwest 166 191 8,600 -540 Descending Jacksonville Center
10:02AM 29.0481 -82.3083 210° Southwest 181 208 8,000 -600 Descending Jacksonville Center
10:03AM 28.9981 -82.3369 207° Southwest 185 213 7,400 -540 Descending Jacksonville Center
10:04AM 28.9564 -82.3633 209° Southwest 185 213 7,000 -540 Descending Jacksonville Center
10:05AM 28.9086 -82.3944 210° Southwest 186 214 6,400 -540 Descending Jacksonville Center
10:06AM 28.8628 -82.4208 207° Southwest 185 213 5,900 -540 Descending Jacksonville Center
10:07AM 28.8128 -82.4542 210° Southwest 184 212 5,300 -300 Descending Jacksonville Center
10:09AM 28.7167 -82.5000 203° Southwest 169 194 5,000 -180 Descending Tampa TRACON
10:10AM 28.6667 -82.5167 196° South 168 193 4,800 -360 Descending Tampa TRACON
10:11AM 28.6167 -82.5167 180° South 184 212 4,300 -420 Descending Tampa TRACON
10:12AM 28.5667 -82.5500 210° Southwest 198 228 4,000 -180 Descending Tampa TRACON
10:13AM 28.5333 -82.5833 221° Southwest 183 211 4,000  Level Tampa TRACON
10:14AM 28.5000 -82.6167 221° Southwest 181 208 4,000  Level Tampa TRACON
10:15AM 28.4500 -82.6500 210° Southwest 181 208 4,000  Level Tampa TRACON
10:16AM 28.4167 -82.6833 221° Southwest 186 214 4,000  Level Tampa TRACON
10:17AM 28.3667 -82.7000 196° South 186 214 4,000  Level Tampa TRACON
10:18AM 28.3167 -82.7333 210° Southwest 193 222 4,000  Level Tampa TRACON
10:19AM 28.2667 -82.7333 180° South 197 227 4,000  Level Tampa TRACON
10:20AM 28.2000 -82.7500 192° South 197 227 4,000  Level Tampa TRACON
10:21AM 28.1500 -82.7500 180° South 197 227 4,000  Level Tampa TRACON
10:22AM 28.1000 -82.7667 196° South 198 228 4,000  Level Tampa TRACON
10:23AM 28.0333 -82.7667 180° South 199 229 4,000  Level Tampa TRACON
10:24AM 27.9833 -82.7667 180° South 200 230 4,000 -60 Level Tampa TRACON
10:25AM 27.9333 -82.7833 196° South 201 231 3,900 -540 Descending Tampa TRACON
10:26AM 27.8667 -82.7667 168° South 225 259 3,000 -480 Descending Tampa TRACON
10:27AM 27.8167 -82.7667 180° South 203 234 3,000  Level Tampa TRACON
10:28AM 27.7500 -82.7667 180° South 189 217 3,000  Level Tampa TRACON
10:29AM 27.7000 -82.7667 180° South 186 214 3,000  Level Tampa TRACON
10:30AM 27.6500 -82.7667 180° South 189 217 3,000  Level Tampa TRACON
10:31AM 27.6000 -82.7667 180° South 190 219 3,000  Level Tampa TRACON
10:32AM 27.5667 -82.7167 127° Southeast 182 209 3,000 -120 Level Tampa TRACON
10:33AM 27.5500 -82.6500 106° East 187 215 2,800 -300 Descending Tampa TRACON
10:34AM 27.5833 -82.6000 53° Northeast 186 214 2,400 -420 Descending Tampa TRACON
10:35AM 27.5833 -82.5667 90° East 171 197 2,000 -240 Descending Tampa TRACON
10:36AM 27.5500 -82.5500 156° South 152 175 2,000  Level Tampa TRACON
10:37AM 27.5500 -82.5833 270° West 128 147 2,000  Level Tampa TRACON
10:38AM 27.5833 -82.6000 336° Northwest 128 147 2,000 -120 Level Tampa TRACON
10:39AM 27.6167 -82.6167 336° Northwest 122 140 1,800 -240 Descending Tampa TRACON
10:40AM 27.6500 -82.6167 360° North 128 147 1,600 -120 Descending Tampa TRACON
10:41AM 27.6833 -82.6333 336° Northwest 121 139 1,600 -420 Level Tampa TRACON
10:42AM 27.7167 -82.6333 360° North 118 136 800 -600 Descending Tampa TRACON
10:43AM 27.7500 -82.6333 360° North 85 98 400 -420 Descending Tampa TRACON